createdAt,value
2019-04-05T00:00:16.511Z,8.10
2019-04-05T00:02:46.138Z,8.37
2019-04-05T00:05:16.319Z,8.37
2019-04-05T00:07:45.899Z,8.83
2019-04-05T00:10:15.649Z,9.27
2019-04-05T00:12:45.162Z,9.17
2019-04-05T00:15:16.170Z,8.50
2019-04-05T00:17:45.838Z,8.20
2019-04-05T00:20:16.056Z,7.73
2019-04-05T00:22:45.523Z,8.63
2019-04-05T00:25:15.012Z,8.80
2019-04-05T00:27:44.553Z,8.33
2019-04-05T00:30:14.350Z,8.43
2019-04-05T00:32:44.077Z,8.63
2019-04-05T00:35:13.640Z,9.13
2019-04-05T00:37:43.093Z,8.10
2019-04-05T00:40:13.106Z,8.97
2019-04-05T00:42:42.558Z,8.80
2019-04-05T00:45:12.258Z,8.53
2019-04-05T00:47:41.746Z,9.13
2019-04-05T00:50:12.660Z,9.10
2019-04-05T00:52:42.212Z,8.57
2019-04-05T00:55:12.240Z,9.50
2019-04-05T00:57:42.085Z,8.70
2019-04-05T01:00:12.897Z,8.80
2019-04-05T01:02:42.369Z,9.37
2019-04-05T01:05:11.987Z,8.47
2019-04-05T01:07:41.721Z,8.80
2019-04-05T01:10:11.551Z,9.30
2019-04-05T01:12:41.765Z,9.30
2019-04-05T01:15:12.912Z,9.70
2019-04-05T01:17:42.738Z,9.10
2019-04-05T01:20:12.741Z,8.90
2019-04-05T01:22:44.549Z,9.23
2019-04-05T01:25:14.654Z,9.30
2019-04-05T01:27:44.279Z,9.27
2019-04-05T01:30:15.113Z,9.47
2019-04-05T01:32:44.832Z,8.70
2019-04-05T01:35:14.707Z,9.10
2019-04-05T01:37:44.723Z,9.43
2019-04-05T01:40:14.543Z,9.33
2019-04-05T01:42:44.360Z,9.40
2019-04-05T01:45:14.219Z,9.40
2019-04-05T01:47:43.755Z,10.10
2019-04-05T01:50:13.681Z,9.63
2019-04-05T01:52:43.644Z,9.23
2019-04-05T01:55:13.297Z,10.40
2019-04-05T01:57:42.767Z,9.93
2019-04-05T02:00:12.703Z,8.80
2019-04-05T02:02:42.433Z,9.80
2019-04-05T02:05:12.571Z,9.23
2019-04-05T02:07:42.279Z,9.37
2019-04-05T02:10:12.444Z,9.90
2019-04-05T02:12:44.036Z,10.00
2019-04-05T02:15:25.140Z,9.90
2019-04-05T02:17:55.016Z,9.43
2019-04-05T02:20:24.826Z,10.30
2019-04-05T02:22:54.542Z,9.83
2019-04-05T02:25:24.176Z,10.00
2019-04-05T02:27:53.710Z,9.93
2019-04-05T02:30:23.469Z,9.17
2019-04-05T02:32:53.175Z,9.77
2019-04-05T02:35:22.827Z,10.07
2019-04-05T02:37:52.449Z,10.67
2019-04-05T02:40:25.165Z,9.53
2019-04-05T02:42:58.305Z,10.50
2019-04-05T02:45:31.519Z,9.53
2019-04-05T02:48:04.560Z,9.00
2019-04-05T02:50:37.263Z,9.67
2019-04-05T02:53:09.156Z,9.50
2019-04-05T02:55:40.891Z,9.50
2019-04-05T02:58:12.224Z,9.67
2019-04-05T03:00:42.985Z,9.27
2019-04-05T03:03:13.513Z,10.10
2019-04-05T03:05:44.508Z,10.00
2019-04-05T03:08:14.909Z,9.13
2019-04-05T03:10:56.121Z,9.63
2019-04-05T03:13:28.991Z,9.33
2019-04-05T03:16:01.833Z,9.73
2019-04-05T03:18:33.400Z,10.40
2019-04-05T03:21:06.309Z,9.70
2019-04-05T03:23:39.273Z,11.10
2019-04-05T03:26:12.007Z,10.60
2019-04-05T03:28:43.097Z,9.80
2019-04-05T03:31:14.070Z,10.00
2019-04-05T03:33:44.325Z,10.07
2019-04-05T03:36:13.869Z,9.13
2019-04-05T03:38:43.503Z,9.57
2019-04-05T03:41:15.647Z,9.87
2019-04-05T03:43:46.366Z,10.57
2019-04-05T03:46:15.935Z,9.60
2019-04-05T03:48:46.689Z,10.13
2019-04-05T03:51:16.505Z,9.80
2019-04-05T03:53:46.335Z,10.27
2019-04-05T03:56:16.117Z,9.93
2019-04-05T03:58:46.345Z,10.33
2019-04-05T04:01:15.903Z,10.77
2019-04-05T04:03:45.482Z,9.80
2019-04-05T04:06:15.465Z,9.57
2019-04-05T04:08:45.060Z,10.30
2019-04-05T04:11:14.722Z,10.27
2019-04-05T04:13:44.408Z,10.47
2019-04-05T04:16:14.453Z,10.20
2019-04-05T04:18:44.368Z,9.97
2019-04-05T04:21:40.788Z,10.53
2019-04-05T04:24:10.826Z,10.00
2019-04-05T04:26:41.542Z,10.10
2019-04-05T04:29:11.930Z,10.67
2019-04-05T04:31:41.729Z,10.43
2019-04-05T04:34:12.351Z,10.50
2019-04-05T04:36:42.321Z,10.87
2019-04-05T04:39:12.205Z,10.47
2019-04-05T04:41:42.290Z,10.57
2019-04-05T04:44:12.005Z,9.87
2019-04-05T04:46:41.849Z,10.63
2019-04-05T04:49:11.643Z,10.80
2019-04-05T04:51:41.539Z,11.97
2019-04-05T04:54:11.645Z,10.03
2019-04-05T04:56:41.460Z,10.20
2019-04-05T04:59:11.101Z,10.83
2019-04-05T05:01:40.661Z,10.90
2019-04-05T05:04:10.518Z,10.83
2019-04-05T05:06:40.610Z,10.33
2019-04-05T05:09:10.370Z,10.97
2019-04-05T05:11:40.085Z,10.23
2019-04-05T05:14:09.743Z,10.87
2019-04-05T05:16:39.603Z,11.33
2019-04-05T05:19:09.540Z,10.80
2019-04-05T05:21:39.165Z,10.47
2019-04-05T05:24:08.856Z,10.17
2019-04-05T05:26:38.805Z,10.60
2019-04-05T05:29:08.791Z,11.07
2019-04-05T05:31:38.502Z,10.57
2019-04-05T05:34:08.395Z,10.47
2019-04-05T05:36:39.048Z,10.77
2019-04-05T05:39:08.892Z,11.20
2019-04-05T05:41:38.564Z,10.40
2019-04-05T05:44:08.211Z,12.30
2019-04-05T05:46:37.968Z,11.07
2019-04-05T05:49:07.703Z,10.70
2019-04-05T05:51:37.671Z,10.97
2019-04-05T05:54:07.156Z,11.77
2019-04-05T05:56:36.774Z,11.23
2019-04-05T05:59:06.503Z,11.13
2019-04-05T06:01:36.337Z,11.33
2019-04-05T06:04:05.991Z,11.03
2019-04-05T06:06:35.572Z,11.17
2019-04-05T06:09:07.321Z,12.20
2019-04-05T06:11:36.815Z,11.50
2019-04-05T06:14:06.485Z,12.60
2019-04-05T06:16:45.801Z,12.00
2019-04-05T06:19:07.451Z,11.50
2019-04-05T06:21:37.009Z,12.47
2019-04-05T06:24:06.647Z,15.47
2019-04-05T06:26:36.451Z,16.87
2019-04-05T06:29:06.157Z,19.07
2019-04-05T06:31:35.747Z,18.03
2019-04-05T06:34:05.517Z,19.37
2019-04-05T06:36:35.024Z,18.77
2019-04-05T06:39:07.097Z,18.53
2019-04-05T06:41:36.775Z,20.70
2019-04-05T06:44:06.529Z,20.90
2019-04-05T06:46:35.997Z,22.07
2019-04-05T06:49:05.733Z,21.83
2019-04-05T06:51:35.360Z,21.67
2019-04-05T06:54:05.129Z,22.37
2019-04-05T06:56:34.685Z,22.50
2019-04-05T06:59:04.686Z,24.33
2019-04-05T07:01:34.263Z,24.37
2019-04-05T07:04:04.085Z,23.80
2019-04-05T07:06:33.659Z,23.33
2019-04-05T07:09:05.127Z,24.20
2019-04-05T07:11:34.815Z,25.00
2019-04-05T07:14:04.363Z,24.10
2019-04-05T07:16:34.346Z,24.27
2019-04-05T07:19:04.038Z,26.60
2019-04-05T07:21:33.696Z,25.43
2019-04-05T07:24:03.171Z,26.47
2019-04-05T07:26:32.728Z,26.53
2019-04-05T07:29:02.324Z,26.20
2019-04-05T07:31:31.921Z,27.53
2019-04-05T07:34:01.565Z,26.00
2019-04-05T07:36:31.246Z,27.73
2019-04-05T07:39:00.718Z,27.20
2019-04-05T07:41:31.814Z,27.37
2019-04-05T07:44:01.591Z,27.47
2019-04-05T07:46:31.317Z,27.10
2019-04-05T07:49:00.921Z,28.20
2019-04-05T07:51:30.500Z,29.87
2019-04-05T07:54:00.037Z,29.67
2019-04-05T07:56:29.577Z,29.40
2019-04-05T07:58:59.274Z,30.90
2019-04-05T08:01:30.223Z,30.40
2019-04-05T08:03:59.937Z,30.33
2019-04-05T08:06:31.003Z,29.93
2019-04-05T08:09:07.785Z,30.60
2019-04-05T08:11:38.747Z,29.87
2019-04-05T08:14:10.001Z,29.00
2019-04-05T08:16:39.632Z,30.80
2019-04-05T08:19:09.247Z,30.83
2019-04-05T08:21:39.752Z,31.20
2019-04-05T08:24:09.397Z,30.13
2019-04-05T08:26:38.981Z,32.07
2019-04-05T08:29:08.627Z,30.13
2019-04-05T08:31:38.209Z,31.57
2019-04-05T08:34:08.141Z,31.47
2019-04-05T08:36:37.715Z,30.80
2019-04-05T08:39:08.494Z,30.97
2019-04-05T08:41:38.228Z,31.33
2019-04-05T08:44:07.992Z,32.27
2019-04-05T08:46:37.944Z,32.17
2019-04-05T08:49:11.463Z,31.37
2019-04-05T08:51:40.601Z,34.50
2019-04-05T08:54:10.261Z,33.57
2019-04-05T08:56:40.589Z,33.80
2019-04-05T08:59:10.211Z,33.73
2019-04-05T09:01:40.112Z,33.50
2019-04-05T09:04:09.742Z,34.13
2019-04-05T09:06:40.494Z,34.03
2019-04-05T09:09:10.451Z,33.93
2019-04-05T09:11:40.208Z,35.33
2019-04-05T09:14:09.787Z,36.23
2019-04-05T09:16:39.300Z,35.63
2019-04-05T09:19:08.843Z,35.03
2019-04-05T09:21:40.391Z,33.50
2019-04-05T09:24:09.814Z,34.17
2019-04-05T09:26:39.473Z,36.23
2019-04-05T09:29:09.556Z,33.50
2019-04-05T09:31:39.343Z,32.90
2019-04-05T09:34:09.043Z,35.33
2019-04-05T09:36:38.660Z,34.77
2019-04-05T09:39:15.330Z,34.53
2019-04-05T09:41:42.100Z,33.63
2019-04-05T09:44:11.871Z,33.57
2019-04-05T09:46:47.944Z,32.97
2019-04-05T09:49:12.901Z,33.50
2019-04-05T09:51:42.527Z,34.30
2019-04-05T09:54:12.225Z,33.87
2019-04-05T09:56:44.087Z,34.70
2019-04-05T09:59:13.759Z,33.83
2019-04-05T10:01:43.266Z,33.80
2019-04-05T10:04:12.937Z,36.27
2019-04-05T10:06:42.633Z,36.00
2019-04-05T10:09:12.614Z,34.40
2019-04-05T10:11:42.513Z,34.20
2019-04-05T10:14:12.004Z,36.97
2019-04-05T10:16:41.722Z,34.63
2019-04-05T10:19:11.249Z,34.77
2019-04-05T10:21:40.836Z,35.07
2019-04-05T10:24:10.655Z,34.43
2019-04-05T10:26:40.399Z,35.60
2019-04-05T10:29:09.992Z,35.07
2019-04-05T10:31:39.605Z,33.53
2019-04-05T10:34:09.180Z,35.60
2019-04-05T10:36:38.734Z,35.43
2019-04-05T10:39:10.438Z,33.73
2019-04-05T10:41:40.087Z,34.43
2019-04-05T10:44:12.924Z,34.67
2019-04-05T10:46:42.400Z,33.70
2019-04-05T10:49:14.942Z,34.60
2019-04-05T10:51:43.297Z,33.37
2019-04-05T10:54:14.826Z,33.37
2019-04-05T10:56:44.239Z,33.17
2019-04-05T10:59:13.825Z,32.50
2019-04-05T11:01:43.687Z,30.10
2019-04-05T11:04:13.293Z,29.97
2019-04-05T11:06:42.996Z,32.43
2019-04-05T11:09:12.469Z,32.30
2019-04-05T11:11:42.010Z,32.17
2019-04-05T11:14:13.968Z,31.77
2019-04-05T11:16:42.820Z,33.77
2019-04-05T11:19:13.313Z,30.30
2019-04-05T11:21:42.995Z,31.27
2019-04-05T11:24:13.940Z,30.03
2019-04-05T11:26:43.411Z,30.73
2019-04-05T11:29:14.454Z,32.47
2019-04-05T11:31:56.216Z,30.73
2019-04-05T11:34:15.477Z,29.90
2019-04-05T11:36:45.527Z,28.00
2019-04-05T11:39:15.161Z,26.87
2019-04-05T11:41:45.766Z,25.97
2019-04-05T11:44:15.507Z,27.37
2019-04-05T11:46:49.106Z,28.03
2019-04-05T11:49:17.585Z,28.17
2019-04-05T11:51:48.060Z,26.77
2019-04-05T11:54:18.493Z,26.70
2019-04-05T11:56:48.058Z,27.80
2019-04-05T11:59:17.521Z,27.63
2019-04-05T12:02:05.698Z,27.00
2019-04-05T12:04:35.235Z,25.67
2019-04-05T12:07:04.988Z,25.87
2019-04-05T12:09:34.684Z,27.93
2019-04-05T12:12:04.263Z,25.90
2019-04-05T12:14:36.372Z,27.13
2019-04-05T12:17:05.564Z,27.00
2019-04-05T12:19:38.114Z,25.67
2019-04-05T12:22:09.176Z,27.30
2019-04-05T12:24:38.513Z,27.67
2019-04-05T12:27:09.115Z,29.00
2019-04-05T12:29:38.592Z,28.27
2019-04-05T12:32:08.063Z,26.03
2019-04-05T12:34:37.628Z,27.87
2019-04-05T12:37:08.374Z,27.17
2019-04-05T12:39:37.888Z,27.23
2019-04-05T12:42:07.519Z,27.37
2019-04-05T12:44:37.064Z,29.23
2019-04-05T12:47:19.114Z,27.60
2019-04-05T12:49:48.793Z,27.97
2019-04-05T12:52:23.014Z,28.40
2019-04-05T12:54:54.111Z,25.80
2019-04-05T12:57:20.675Z,27.17
2019-04-05T12:59:51.489Z,25.27
2019-04-05T13:02:33.085Z,25.03
2019-04-05T13:04:52.551Z,25.57
2019-04-05T13:07:22.792Z,27.33
2019-04-05T13:09:55.060Z,27.40
2019-04-05T13:12:26.233Z,25.37
2019-04-05T13:15:00.129Z,25.97
2019-04-05T13:17:26.579Z,26.93
2019-04-05T13:19:56.012Z,27.30
2019-04-05T13:22:25.684Z,26.97
2019-04-05T13:24:55.116Z,25.63
2019-04-05T13:27:24.971Z,27.10
2019-04-05T13:29:54.448Z,27.20
2019-04-05T13:32:24.325Z,25.73
2019-04-05T13:34:55.722Z,25.17
2019-04-05T13:37:25.949Z,24.23
2019-04-05T13:39:55.484Z,26.57
2019-04-05T13:42:25.106Z,27.57
2019-04-05T13:44:54.567Z,26.13
2019-04-05T13:47:24.165Z,24.87
2019-04-05T13:49:53.668Z,28.50
2019-04-05T13:52:23.126Z,27.13
2019-04-05T13:54:52.570Z,26.17
2019-04-05T13:57:21.996Z,26.43
2019-04-05T13:59:51.462Z,27.93
2019-04-05T14:02:21.605Z,26.03
2019-04-05T14:04:53.629Z,28.10
2019-04-05T14:07:24.530Z,26.93
2019-04-05T14:09:53.852Z,25.97
2019-04-05T14:12:23.288Z,27.17
2019-04-05T14:14:52.780Z,25.73
2019-04-05T14:17:22.204Z,27.27
2019-04-05T14:19:51.707Z,26.67
2019-04-05T14:22:22.528Z,26.47
2019-04-05T14:24:56.432Z,26.17
2019-04-05T14:27:23.826Z,25.90
2019-04-05T14:29:53.256Z,25.87
2019-04-05T14:32:22.762Z,25.37
2019-04-05T14:34:54.771Z,25.77
2019-04-05T14:37:25.307Z,27.90
2019-04-05T14:40:01.571Z,27.03
2019-04-05T14:42:31.179Z,25.73
2019-04-05T14:45:00.622Z,26.93
2019-04-05T14:47:30.141Z,25.10
2019-04-05T14:50:00.976Z,26.33
2019-04-05T14:52:31.137Z,25.57
2019-04-05T14:55:01.318Z,25.03
2019-04-05T14:57:32.612Z,25.47
2019-04-05T15:00:02.034Z,25.03
2019-04-05T15:02:31.625Z,25.80
2019-04-05T15:05:01.136Z,25.77
2019-04-05T15:07:30.663Z,25.23
2019-04-05T15:10:03.379Z,26.37
2019-04-05T15:12:31.405Z,25.50
2019-04-05T15:15:00.902Z,26.60
2019-04-05T15:17:30.338Z,24.83
2019-04-05T15:19:59.754Z,24.87
2019-04-05T15:22:29.250Z,24.70
2019-04-05T15:24:58.686Z,25.37
2019-04-05T15:27:28.277Z,24.37
2019-04-05T15:29:57.724Z,24.97
2019-04-05T15:32:27.440Z,25.17
2019-04-05T15:34:58.998Z,24.70
2019-04-05T15:37:31.790Z,24.67
2019-04-05T15:40:00.446Z,25.70
2019-04-05T15:42:30.450Z,26.33
2019-04-05T15:44:59.950Z,25.00
2019-04-05T15:47:31.785Z,24.73
2019-04-05T15:50:00.703Z,23.50
2019-04-05T15:52:32.075Z,25.40
2019-04-05T15:55:01.716Z,24.03
2019-04-05T15:57:34.290Z,25.87
2019-04-05T16:00:06.622Z,25.77
2019-04-05T16:02:36.082Z,25.10
2019-04-05T16:05:06.511Z,24.57
2019-04-05T16:07:35.959Z,24.43
2019-04-05T16:10:06.398Z,24.63
2019-04-05T16:12:36.079Z,25.87
2019-04-05T16:15:06.821Z,25.43
2019-04-05T16:17:36.288Z,24.00
2019-04-05T16:20:06.935Z,24.93
2019-04-05T16:22:36.779Z,25.63
2019-04-05T16:25:07.107Z,24.37
2019-04-05T16:27:36.666Z,23.63
2019-04-05T16:30:07.533Z,27.00
2019-04-05T16:32:36.986Z,27.33
2019-04-05T16:35:06.620Z,24.83
2019-04-05T16:37:36.125Z,24.43
2019-04-05T16:40:05.999Z,24.90
2019-04-05T16:42:35.553Z,25.97
2019-04-05T16:45:06.310Z,24.30
2019-04-05T16:47:35.924Z,24.47
2019-04-05T16:50:06.224Z,24.43
2019-04-05T16:52:44.757Z,27.87
2019-04-05T16:55:07.947Z,25.20
2019-04-05T16:57:37.924Z,26.23
2019-04-05T17:00:09.213Z,26.63
2019-04-05T17:02:38.789Z,26.43
2019-04-05T17:05:08.782Z,25.23
2019-04-05T17:07:38.255Z,25.77
2019-04-05T17:10:07.947Z,26.10
2019-04-05T17:12:37.469Z,27.23
2019-04-05T17:15:07.666Z,27.30
2019-04-05T17:17:37.280Z,25.83
2019-04-05T17:20:07.331Z,25.40
2019-04-05T17:22:36.833Z,29.37
2019-04-05T17:25:06.929Z,26.47
2019-04-05T17:27:36.452Z,26.13
2019-04-05T17:30:06.493Z,26.20
2019-04-05T17:32:36.312Z,27.40
2019-04-05T17:35:06.630Z,26.17
2019-04-05T17:37:36.237Z,32.43
2019-04-05T17:40:06.667Z,29.20
2019-04-05T17:42:36.149Z,29.23
2019-04-05T17:45:06.995Z,27.83
2019-04-05T17:47:36.626Z,26.17
2019-04-05T17:50:10.397Z,28.90
2019-04-05T17:52:39.210Z,27.23
2019-04-05T17:55:08.896Z,27.40
2019-04-05T17:57:38.395Z,28.23
2019-04-05T18:00:10.330Z,32.80
2019-04-05T18:02:39.795Z,29.60
2019-04-05T18:05:09.592Z,29.33
2019-04-05T18:07:39.017Z,28.60
2019-04-05T18:10:08.760Z,29.40
2019-04-05T18:12:38.334Z,28.83
2019-04-05T18:15:07.913Z,33.37
2019-04-05T18:17:37.360Z,34.30
2019-04-05T18:20:09.638Z,27.53
2019-04-05T18:22:38.250Z,28.67
2019-04-05T18:25:07.859Z,28.87
2019-04-05T18:27:37.367Z,26.87
2019-04-05T18:30:07.559Z,27.90
2019-04-05T18:32:37.097Z,26.33
2019-04-05T18:35:06.884Z,27.63
2019-04-05T18:37:36.485Z,27.77
2019-04-05T18:40:06.370Z,26.40
2019-04-05T18:42:35.820Z,28.70
2019-04-05T18:45:06.302Z,29.53
2019-04-05T18:47:35.766Z,25.97
2019-04-05T18:50:05.867Z,27.23
2019-04-05T18:52:35.306Z,26.30
2019-04-05T18:55:04.922Z,28.07
2019-04-05T18:57:34.466Z,27.60
2019-04-05T19:00:04.718Z,27.17
2019-04-05T19:02:34.182Z,30.43
2019-04-05T19:05:04.324Z,28.03
2019-04-05T19:07:33.836Z,28.77
2019-04-05T19:10:03.412Z,28.97
2019-04-05T19:12:33.013Z,30.93
2019-04-05T19:15:02.521Z,30.33
2019-04-05T19:17:32.021Z,29.33
2019-04-05T19:20:01.470Z,32.60
2019-04-05T19:22:30.940Z,30.23
2019-04-05T19:25:00.394Z,33.87
2019-04-05T19:27:29.927Z,32.53
2019-04-05T19:29:59.398Z,32.20
2019-04-05T19:50:10.019Z,29.47
2019-04-05T19:52:39.551Z,28.20
2019-04-05T19:55:09.389Z,28.00
2019-04-05T19:57:38.864Z,29.47
2019-04-05T20:00:09.066Z,26.10
2019-04-05T20:02:38.563Z,26.20
2019-04-05T20:05:08.430Z,28.17
2019-04-05T20:07:37.916Z,26.93
2019-04-05T20:10:07.679Z,27.63
2019-04-05T20:12:37.143Z,26.93
2019-04-05T20:15:08.022Z,25.90
2019-04-05T20:17:37.565Z,27.37
2019-04-05T20:20:10.899Z,27.07
2019-04-05T20:22:40.338Z,29.40
2019-04-05T20:25:10.242Z,27.10
2019-04-05T20:27:39.756Z,29.67
2019-04-05T20:30:09.661Z,25.97
2019-04-05T20:32:39.238Z,27.40
2019-04-05T20:35:08.873Z,25.97
2019-04-05T20:37:40.042Z,28.00
2019-04-05T20:40:09.971Z,26.60
2019-04-05T20:42:39.521Z,24.40
2019-04-05T20:45:09.226Z,25.33
2019-04-05T20:47:38.687Z,24.90
2019-04-05T20:50:08.612Z,23.40
2019-04-05T20:52:38.189Z,25.70
2019-04-05T20:55:07.864Z,25.60
2019-04-05T20:57:37.315Z,25.73
2019-04-05T21:00:08.681Z,25.43
2019-04-05T21:02:38.158Z,24.30
2019-04-05T21:05:07.804Z,24.20
2019-04-05T21:07:37.273Z,25.77
2019-04-05T21:10:07.350Z,24.80
2019-04-05T21:12:36.893Z,24.80
2019-04-05T21:15:06.634Z,25.67
2019-04-05T21:17:36.109Z,25.17
2019-04-05T21:20:06.246Z,27.63
2019-04-05T21:22:35.675Z,23.20
2019-04-05T21:25:05.939Z,27.07
2019-04-05T21:27:35.380Z,25.23
2019-04-05T21:30:05.808Z,25.03
2019-04-05T21:32:35.227Z,25.47
2019-04-05T21:35:05.341Z,24.37
2019-04-05T21:37:34.829Z,26.37
2019-04-05T21:40:05.043Z,25.37
2019-04-05T21:42:34.487Z,26.50
2019-04-05T21:45:04.299Z,26.10
2019-04-05T21:47:33.751Z,25.30
2019-04-05T21:50:03.405Z,25.00
2019-04-05T21:52:32.834Z,25.63
2019-04-05T21:55:02.486Z,24.47
2019-04-05T21:57:32.078Z,26.70
2019-04-05T22:00:01.600Z,26.97
2019-04-05T22:02:31.195Z,26.37
2019-04-05T22:05:01.378Z,25.83
2019-04-05T22:07:31.037Z,25.37
2019-04-05T22:10:00.450Z,25.97
2019-04-05T22:12:29.890Z,25.27
2019-04-05T22:14:59.330Z,26.43
2019-04-05T22:17:29.002Z,25.23
2019-04-05T22:19:58.426Z,26.37
2019-04-05T22:22:27.914Z,27.00
2019-04-05T22:24:59.598Z,26.73
2019-04-05T22:27:28.510Z,26.30
2019-04-05T22:29:58.019Z,26.33
2019-04-05T22:32:27.530Z,27.47
2019-04-05T22:34:56.940Z,25.53
2019-04-05T22:37:26.468Z,30.10
2019-04-05T22:42:43.545Z,26.37
2019-04-05T22:45:13.478Z,26.23
2019-04-05T22:47:42.984Z,26.90
2019-04-05T22:50:12.800Z,25.20
2019-04-05T22:52:47.915Z,25.33
2019-04-05T22:55:17.619Z,26.67
2019-04-05T22:57:47.050Z,25.90
2019-04-05T23:00:17.057Z,25.40
2019-04-05T23:02:46.515Z,26.27
2019-04-05T23:05:15.947Z,25.77
2019-04-05T23:07:45.429Z,25.47
2019-04-05T23:10:14.940Z,25.50
2019-04-05T23:12:44.431Z,25.60
2019-04-05T23:15:14.006Z,25.53
2019-04-05T23:17:43.440Z,23.43
2019-04-05T23:20:13.235Z,24.13
2019-04-05T23:22:42.685Z,23.77
2019-04-05T23:25:21.479Z,23.40
2019-04-05T23:27:43.481Z,24.43
2019-04-05T23:30:14.395Z,23.27
2019-04-05T23:32:43.831Z,22.90
2019-04-05T23:35:13.567Z,22.43
2019-04-05T23:37:43.026Z,23.57
2019-04-05T23:40:12.962Z,23.67
2019-04-05T23:42:42.393Z,23.57
2019-04-05T23:45:12.330Z,23.13
2019-04-05T23:47:41.829Z,23.00
2019-04-05T23:50:12.885Z,24.00
2019-04-05T23:52:42.467Z,23.20
2019-04-05T23:55:12.018Z,21.73
2019-04-05T23:57:41.526Z,23.17
